createdAt,value
2023-04-04T00:00:40.651Z,101568.22
2023-04-04T00:05:42.727Z,101574.53
2023-04-04T00:10:44.105Z,101561.81
2023-04-04T00:15:45.477Z,101559.47
2023-04-04T00:20:46.888Z,101557.31
2023-04-04T00:25:52.255Z,101552.66
2023-04-04T00:30:54.416Z,101554.47
2023-04-04T00:35:55.862Z,101546.06
2023-04-04T00:40:57.611Z,101546.25
2023-04-04T00:45:59.179Z,101542.47
2023-04-04T00:51:00.754Z,101549.78
2023-04-04T00:56:02.180Z,101550.19
2023-04-04T01:01:05.632Z,101541.38
2023-04-04T01:06:08.336Z,101542.31
2023-04-04T01:11:10.034Z,101531.69
2023-04-04T01:16:11.385Z,101532.81
2023-04-04T01:21:17.062Z,101532.06
2023-04-04T01:26:21.826Z,101524.28
2023-04-04T01:31:31.604Z,101531.72
2023-04-04T01:36:43.060Z,101531.63
2023-04-04T01:41:48.361Z,101529.13
2023-04-04T01:46:54.898Z,101529.22
2023-04-04T01:51:56.847Z,101524.41
2023-04-04T01:56:58.341Z,101530.69
2023-04-04T02:01:59.720Z,101529.81
2023-04-04T02:07:01.021Z,101530.84
2023-04-04T02:12:02.447Z,101531.31
2023-04-04T02:17:03.895Z,101533.13
2023-04-04T02:22:05.986Z,101525.38
2023-04-04T02:27:07.305Z,101521.97
2023-04-04T02:32:08.606Z,101522.91
2023-04-04T02:37:10.254Z,101518.34
2023-04-04T02:42:11.615Z,101513.13
2023-04-04T02:47:13.096Z,101515.91
2023-04-04T02:52:14.480Z,101505.38
2023-04-04T02:57:16.141Z,101503.38
2023-04-04T03:02:17.583Z,101493.53
2023-04-04T03:07:19.351Z,101490.22
2023-04-04T03:12:21.752Z,101488.88
2023-04-04T03:17:23.268Z,101484.63
2023-04-04T03:22:24.691Z,101486.50
2023-04-04T03:27:26.560Z,101481.47
2023-04-04T03:32:28.647Z,101478.94
2023-04-04T03:37:30.419Z,101472.00
2023-04-04T03:42:34.965Z,101479.50
2023-04-04T03:47:36.401Z,101472.47
2023-04-04T03:52:41.676Z,101462.81
2023-04-04T03:57:43.251Z,101466.41
2023-04-04T04:02:44.785Z,101471.06
2023-04-04T04:07:46.596Z,101459.22
2023-04-04T04:12:48.180Z,101454.03
2023-04-04T04:17:49.601Z,101453.34
2023-04-04T04:22:53.343Z,101458.06
2023-04-04T04:27:56.901Z,101456.28
2023-04-04T04:32:58.400Z,101467.84
2023-04-04T04:37:59.726Z,101458.44
2023-04-04T04:43:01.301Z,101458.81
2023-04-04T04:48:02.700Z,101465.34
2023-04-04T04:53:04.348Z,101468.09
2023-04-04T04:58:06.158Z,101468.75
2023-04-04T05:03:07.573Z,101468.97
2023-04-04T05:08:08.996Z,101471.44
2023-04-04T05:13:10.554Z,101476.56
2023-04-04T05:18:12.076Z,101466.63
2023-04-04T05:23:13.741Z,101469.47
2023-04-04T05:28:15.125Z,101468.22
2023-04-04T05:33:16.482Z,101463.38
2023-04-04T05:38:17.868Z,101464.91
2023-04-04T05:43:19.208Z,101472.84
2023-04-04T05:48:21.030Z,101467.13
2023-04-04T05:53:22.437Z,101467.31
2023-04-04T05:58:23.796Z,101470.16
2023-04-04T06:03:25.462Z,101471.69
2023-04-04T06:08:27.093Z,101470.94
2023-04-04T06:13:28.462Z,101478.28
2023-04-04T06:18:29.838Z,101474.03
2023-04-04T06:23:31.502Z,101478.34
2023-04-04T06:28:32.944Z,101478.16
2023-04-04T06:33:34.289Z,101476.91
2023-04-04T06:38:36.517Z,101475.88
2023-04-04T06:43:37.854Z,101485.66
2023-04-04T06:48:39.175Z,101478.97
2023-04-04T06:53:40.543Z,101489.09
2023-04-04T06:58:41.994Z,101491.72
2023-04-04T07:03:44.555Z,101486.69
2023-04-04T07:08:45.974Z,101487.44
2023-04-04T07:13:47.394Z,101486.09
2023-04-04T07:18:48.733Z,101498.81
2023-04-04T07:23:51.033Z,101496.06
2023-04-04T07:28:52.881Z,101497.94
2023-04-04T07:33:54.219Z,101491.91
2023-04-04T07:38:55.696Z,101492.91
2023-04-04T07:43:57.083Z,101492.19
2023-04-04T07:48:58.575Z,101494.19
2023-04-04T07:53:59.880Z,101484.28
2023-04-04T07:59:01.643Z,101485.00
2023-04-04T08:04:03.206Z,101477.63
2023-04-04T08:09:04.948Z,101477.38
2023-04-04T08:14:06.307Z,101474.69
2023-04-04T08:19:08.374Z,101471.91
2023-04-04T08:24:09.788Z,101472.09
2023-04-04T08:29:11.295Z,101461.84
2023-04-04T08:34:13.470Z,101468.13
2023-04-04T08:39:14.873Z,101464.97
2023-04-04T08:44:20.416Z,101466.66
2023-04-04T08:49:23.802Z,101463.03
2023-04-04T08:54:26.237Z,101458.53
2023-04-04T08:59:27.711Z,101454.97
2023-04-04T09:04:29.292Z,101452.72
2023-04-04T09:09:34.299Z,101456.13
2023-04-04T09:14:38.721Z,101447.06
2023-04-04T09:19:40.054Z,101445.28
2023-04-04T09:24:43.409Z,101448.25
2023-04-04T09:29:44.741Z,101443.13
2023-04-04T09:34:46.179Z,101443.59
2023-04-04T09:39:48.400Z,101437.47
2023-04-04T09:44:54.672Z,101430.00
2023-04-04T09:50:00.674Z,101423.81
2023-04-04T09:55:04.798Z,101432.00
2023-04-04T10:00:09.441Z,101438.66
2023-04-04T10:05:11.283Z,101434.13
2023-04-04T10:10:13.785Z,101432.81
2023-04-04T10:15:16.560Z,101431.25
2023-04-04T10:20:19.026Z,101423.19
2023-04-04T10:25:20.552Z,101420.03
2023-04-04T10:30:21.908Z,101419.53
2023-04-04T10:35:24.915Z,101421.34
2023-04-04T10:40:33.160Z,101416.03
2023-04-04T10:45:38.400Z,101401.47
2023-04-04T10:50:41.022Z,101414.50
2023-04-04T10:55:44.576Z,101401.91
2023-04-04T11:00:54.989Z,101392.00
2023-04-04T11:06:01.690Z,101391.97
2023-04-04T11:11:09.693Z,101376.94
2023-04-04T11:16:19.260Z,101358.78
2023-04-04T11:21:28.116Z,101360.38
2023-04-04T11:26:29.884Z,101354.13
2023-04-04T11:31:40.029Z,101351.75
2023-04-04T11:36:43.004Z,101352.06
2023-04-04T11:41:59.643Z,101343.81
2023-04-04T11:47:11.898Z,101336.22
2023-04-04T11:52:15.774Z,101334.34
2023-04-04T11:57:19.248Z,101317.31
2023-04-04T12:02:27.168Z,101307.16
2023-04-04T12:07:29.338Z,101317.94
2023-04-04T12:12:31.075Z,101312.22
2023-04-04T12:17:34.470Z,101315.09
2023-04-04T12:22:36.444Z,101300.69
2023-04-04T12:27:37.828Z,101306.16
2023-04-04T12:32:39.334Z,101296.31
2023-04-04T12:37:57.176Z,101289.31
2023-04-04T12:43:00.051Z,101281.81
2023-04-04T12:48:01.496Z,101275.84
2023-04-04T12:53:24.329Z,101272.09
2023-04-04T12:58:27.212Z,101263.22
2023-04-04T13:03:29.372Z,101269.78
2023-04-04T13:08:31.732Z,101266.88
2023-04-04T13:13:56.252Z,101262.38
2023-04-04T13:18:57.634Z,101252.50
2023-04-04T13:23:58.982Z,101241.56
2023-04-04T13:29:00.319Z,101240.47
2023-04-04T13:34:01.643Z,101234.84
2023-04-04T13:39:03.006Z,101228.41
2023-04-04T13:44:04.330Z,101215.00
2023-04-04T13:49:05.828Z,101217.34
2023-04-04T13:54:07.286Z,101216.34
2023-04-04T13:59:08.835Z,101198.09
2023-04-04T14:04:22.657Z,101190.97
2023-04-04T14:09:25.336Z,101191.44
2023-04-04T14:14:26.760Z,101181.88
2023-04-04T14:19:28.268Z,101181.97
2023-04-04T14:24:29.646Z,101176.09
2023-04-04T14:29:31.166Z,101170.88
2023-04-04T14:34:32.594Z,101167.16
2023-04-04T14:39:33.996Z,101159.91
2023-04-04T14:44:35.403Z,101164.69
2023-04-04T14:49:36.809Z,101148.59
2023-04-04T14:54:38.170Z,101139.69
2023-04-04T14:59:39.534Z,101142.50
2023-04-04T15:04:42.518Z,101140.09
2023-04-04T15:09:44.163Z,101144.53
2023-04-04T15:14:46.112Z,101141.91
2023-04-04T15:19:47.424Z,101132.91
2023-04-04T15:24:48.824Z,101131.16
2023-04-04T15:29:50.383Z,101127.84
2023-04-04T15:34:51.837Z,101121.13
2023-04-04T15:39:54.257Z,101126.56
2023-04-04T15:44:56.012Z,101123.13
2023-04-04T15:49:57.351Z,101124.66
2023-04-04T15:54:58.730Z,101114.38
2023-04-04T16:00:00.215Z,101107.72
2023-04-04T16:05:01.907Z,101110.84
2023-04-04T16:10:03.869Z,101100.75
2023-04-04T16:15:07.536Z,101103.22
2023-04-04T16:20:09.681Z,101098.72
2023-04-04T16:25:11.160Z,101097.69
2023-04-04T16:30:13.992Z,101110.03
2023-04-04T16:35:15.597Z,101106.25
2023-04-04T16:40:18.564Z,101102.44
2023-04-04T16:45:19.994Z,101101.78
2023-04-04T16:50:21.334Z,101092.75
2023-04-04T16:55:26.121Z,101098.91
2023-04-04T17:00:27.574Z,101099.00
2023-04-04T17:05:28.895Z,101087.94
2023-04-04T17:10:31.161Z,101093.22
2023-04-04T17:15:32.679Z,101091.91
2023-04-04T17:20:34.582Z,101094.56
2023-04-04T17:25:36.517Z,101096.59
2023-04-04T17:30:38.007Z,101102.94
2023-04-04T17:35:39.933Z,101101.16
2023-04-04T17:40:41.956Z,101100.50
2023-04-04T17:45:44.064Z,101102.53
2023-04-04T17:50:45.463Z,101110.59
2023-04-04T17:55:46.854Z,101104.09
2023-04-04T18:00:48.368Z,101109.75
2023-04-04T18:05:49.914Z,101111.53
2023-04-04T18:10:52.220Z,101116.47
2023-04-04T18:15:53.680Z,101115.50
2023-04-04T18:20:55.162Z,101115.41
2023-04-04T18:25:56.622Z,101119.59
2023-04-04T18:30:58.553Z,101126.78
2023-04-04T18:36:00.342Z,101139.38
2023-04-04T18:41:01.838Z,101138.22
2023-04-04T18:46:05.171Z,101139.22
2023-04-04T18:51:07.894Z,101143.38
2023-04-04T18:56:09.603Z,101148.72
2023-04-04T19:01:11.779Z,101148.66
2023-04-04T19:06:14.459Z,101148.13
2023-04-04T19:11:16.238Z,101151.28
2023-04-04T19:16:18.271Z,101148.47
2023-04-04T19:21:19.701Z,101153.16
2023-04-04T19:26:21.381Z,101144.97
2023-04-04T19:31:24.372Z,101147.53
2023-04-04T19:36:26.201Z,101152.19
2023-04-04T19:41:35.240Z,101147.09
2023-04-04T19:46:36.721Z,101143.00
2023-04-04T19:51:40.531Z,101140.34
2023-04-04T19:56:44.947Z,101140.75
2023-04-04T20:01:59.775Z,101147.19
2023-04-04T20:07:02.042Z,101146.03
2023-04-04T20:12:05.032Z,101153.72
2023-04-04T20:17:06.801Z,101147.78
2023-04-04T20:22:08.155Z,101149.13
2023-04-04T20:27:10.424Z,101151.88
2023-04-04T20:32:11.954Z,101149.56
2023-04-04T20:37:20.890Z,101154.53
2023-04-04T20:42:31.256Z,101152.63
2023-04-04T20:47:46.204Z,101155.09
2023-04-04T20:52:59.399Z,101157.34
2023-04-04T20:58:08.631Z,101166.78
2023-04-04T21:03:26.044Z,101166.50
2023-04-04T21:08:37.270Z,101170.38
2023-04-04T21:13:43.739Z,101173.56
2023-04-04T21:18:45.639Z,101175.34
2023-04-04T21:23:55.274Z,101170.59
2023-04-04T21:28:59.340Z,101169.69
2023-04-04T21:34:07.765Z,101165.59
2023-04-04T21:39:21.665Z,101173.00
2023-04-04T21:44:23.667Z,101170.88
2023-04-04T21:49:25.547Z,101169.19
2023-04-04T21:54:26.894Z,101167.75
2023-04-04T21:59:28.334Z,101171.03
2023-04-04T22:04:29.732Z,101172.59
2023-04-04T22:09:31.145Z,101170.78
2023-04-04T22:14:32.509Z,101173.19
2023-04-04T22:19:43.170Z,101178.69
2023-04-04T22:24:44.756Z,101171.81
2023-04-04T22:29:46.577Z,101171.31
2023-04-04T22:34:48.824Z,101171.81
2023-04-04T22:39:50.963Z,101158.09
2023-04-04T22:44:52.338Z,101157.25
2023-04-04T22:49:53.686Z,101151.09
2023-04-04T22:54:55.255Z,101159.56
2023-04-04T22:59:56.592Z,101155.81
2023-04-04T23:04:58.579Z,101147.09
2023-04-04T23:10:00.360Z,101147.31
2023-04-04T23:15:03.138Z,101150.16
2023-04-04T23:20:07.790Z,101149.16
2023-04-04T23:25:09.359Z,101140.19
2023-04-04T23:30:11.133Z,101134.75
2023-04-04T23:35:12.480Z,101139.97
2023-04-04T23:40:13.910Z,101131.84
2023-04-04T23:45:16.238Z,101135.47
2023-04-04T23:50:19.038Z,101127.75
2023-04-04T23:55:20.575Z,101120.69
